createdAt,value
2022-11-17T06:12:50.768Z,98908.28
2022-11-17T06:15:58.045Z,98915.22
2022-11-17T06:19:06.639Z,98902.22
2022-11-17T06:22:12.682Z,98905.69
2022-11-17T06:25:18.417Z,98901.38
2022-11-17T06:28:23.018Z,98911.78
2022-11-17T06:31:27.786Z,98910.91
2022-11-17T06:34:31.788Z,98909.16
2022-11-17T06:37:33.816Z,98912.66
2022-11-17T06:40:36.190Z,98908.34
2022-11-17T06:43:38.707Z,98913.53
2022-11-17T06:46:46.136Z,98910.06
2022-11-17T06:49:50.806Z,98919.59
2022-11-17T06:52:57.305Z,98926.56
2022-11-17T06:56:02.658Z,98934.34
2022-11-17T06:59:05.138Z,98942.19
2022-11-17T07:02:07.204Z,98944.75
2022-11-17T07:05:09.899Z,98939.53
2022-11-17T07:08:11.966Z,98939.53
2022-11-17T07:11:16.588Z,98938.69
2022-11-17T07:14:18.707Z,98940.41
2022-11-17T07:17:21.042Z,98939.56
2022-11-17T07:20:23.155Z,98925.69
2022-11-17T07:23:25.531Z,98933.50
2022-11-17T07:26:27.819Z,98923.06
2022-11-17T07:29:30.782Z,98931.72
2022-11-17T07:32:34.112Z,98925.59
2022-11-17T07:35:37.275Z,98926.47
2022-11-17T07:38:40.404Z,98935.13
2022-11-17T07:41:43.123Z,98931.63
2022-11-17T07:44:45.426Z,98937.75
2022-11-17T07:47:55.330Z,98933.41
2022-11-17T07:51:01.267Z,98940.38
2022-11-17T07:54:03.787Z,98949.94
2022-11-17T07:57:05.937Z,98956.00
2022-11-17T08:00:08.855Z,98950.84
2022-11-17T08:03:13.984Z,98937.75
2022-11-17T08:06:17.111Z,98931.69
2022-11-17T08:09:19.348Z,98940.31
2022-11-17T08:12:21.941Z,98933.37
2022-11-17T08:15:24.414Z,98936.00
2022-11-17T08:18:28.451Z,98932.50
2022-11-17T08:21:30.661Z,98940.25
2022-11-17T08:24:33.084Z,98952.38
2022-11-17T08:27:35.149Z,98950.63
2022-11-17T08:30:37.582Z,98958.50
2022-11-17T08:33:40.008Z,98955.06
2022-11-17T08:36:42.696Z,98957.63
2022-11-17T08:39:44.884Z,98962.72
2022-11-17T08:42:47.446Z,98950.53
2022-11-17T08:45:49.538Z,98957.47
2022-11-17T08:48:56.911Z,98948.81
2022-11-17T08:51:59.434Z,98958.28
2022-11-17T08:55:02.591Z,98965.25
2022-11-17T08:58:04.770Z,98975.66
2022-11-17T09:01:18.374Z,98972.13
2022-11-17T09:04:20.548Z,98971.28
2022-11-17T09:07:23.047Z,98970.44
2022-11-17T09:10:25.157Z,98969.59
2022-11-17T09:13:27.498Z,98976.62
2022-11-17T09:16:29.822Z,98988.75
2022-11-17T09:19:32.143Z,98990.38
2022-11-17T09:22:34.258Z,98996.47
2022-11-17T09:25:36.621Z,99005.06
2022-11-17T09:28:39.650Z,99007.78
2022-11-17T09:31:42.320Z,99013.84
2022-11-17T09:34:44.445Z,99008.72
2022-11-17T09:37:46.863Z,99007.00
2022-11-17T09:40:49.080Z,99001.66
2022-11-17T09:44:11.690Z,98993.00
2022-11-17T09:47:46.763Z,98990.38
2022-11-17T09:50:50.487Z,98979.03
2022-11-17T09:54:01.573Z,98984.31
2022-11-17T09:57:05.943Z,98977.28
2022-11-17T10:00:11.606Z,98978.88
2022-11-17T10:03:24.807Z,98979.81
2022-11-17T10:06:29.461Z,98980.66
2022-11-17T10:09:45.860Z,98972.81
2022-11-17T10:12:53.322Z,98984.06
2022-11-17T10:15:58.121Z,98974.44
2022-11-17T10:19:21.951Z,98965.66
2022-11-17T10:22:34.569Z,98976.16
2022-11-17T10:25:39.175Z,98972.81
2022-11-17T10:28:41.573Z,98972.00
2022-11-17T10:31:45.888Z,98962.38
2022-11-17T10:34:48.299Z,98971.91
2022-11-17T10:37:56.814Z,98979.72
2022-11-17T10:41:02.999Z,98984.94
2022-11-17T10:44:19.386Z,98984.94
2022-11-17T10:47:40.629Z,98983.12
2022-11-17T10:50:56.402Z,98985.63
2022-11-17T10:54:19.331Z,98985.63
2022-11-17T10:57:26.494Z,98996.09
2022-11-17T11:00:32.558Z,98995.22
2022-11-17T11:03:35.321Z,98990.81
2022-11-17T11:06:37.934Z,98999.62
2022-11-17T11:09:48.251Z,98986.47
2022-11-17T11:13:02.422Z,98983.78
2022-11-17T11:16:05.217Z,98978.59
2022-11-17T11:19:14.483Z,98987.25
2022-11-17T11:22:37.958Z,98978.44
2022-11-17T11:25:46.070Z,98977.38
2022-11-17T11:29:27.896Z,98976.50
2022-11-17T11:32:48.736Z,98981.75
2022-11-17T11:36:15.102Z,98979.16
2022-11-17T11:39:35.891Z,98996.50
2022-11-17T11:42:49.553Z,98981.63
2022-11-17T11:46:03.244Z,98985.97
2022-11-17T11:49:29.798Z,98983.38
2022-11-17T11:52:38.033Z,98981.44
2022-11-17T11:55:41.343Z,98973.47
2022-11-17T11:58:53.556Z,98972.59
2022-11-17T12:02:14.561Z,98973.63
2022-11-17T12:05:26.438Z,98966.53
2022-11-17T12:08:38.262Z,98973.44
2022-11-17T12:12:00.652Z,98971.47
2022-11-17T12:15:09.197Z,98974.81
2022-11-17T12:18:13.316Z,98979.91
2022-11-17T12:21:23.737Z,98973.75
2022-11-17T12:24:37.834Z,98966.16
2022-11-17T12:27:39.893Z,98968.12
2022-11-17T12:30:45.305Z,98975.88
2022-11-17T12:33:53.316Z,98980.97
2022-11-17T12:37:14.711Z,98982.75
2022-11-17T12:40:57.286Z,98982.97
2022-11-17T12:44:37.591Z,98988.00
2022-11-17T12:47:44.310Z,98987.94
2022-11-17T12:51:03.399Z,98987.84
2022-11-17T12:54:35.771Z,98984.19
2022-11-17T12:57:38.975Z,98978.84
2022-11-17T13:01:04.855Z,98979.97
2022-11-17T13:04:16.229Z,98977.59
